sensor_id;sensor_type;location;lat;lon;timestamp;P1;durP1;ratioP1;P2;durP2;ratioP2
11829;SDS011;5972;42.134;24.718;2023-05-31T00:00:22;6.28;;;5.10;;
11829;SDS011;5972;42.134;24.718;2023-05-31T00:02:49;5.70;;;5.20;;
11829;SDS011;5972;42.134;24.718;2023-05-31T00:05:16;5.80;;;5.30;;
11829;SDS011;5972;42.134;24.718;2023-05-31T00:07:43;9.38;;;5.10;;
11829;SDS011;5972;42.134;24.718;2023-05-31T00:10:11;5.13;;;4.63;;
11829;SDS011;5972;42.134;24.718;2023-05-31T00:12:38;5.13;;;4.63;;
11829;SDS011;5972;42.134;24.718;2023-05-31T00:15:05;6.57;;;4.40;;
11829;SDS011;5972;42.134;24.718;2023-05-31T00:17:32;5.05;;;4.55;;
11829;SDS011;5972;42.134;24.718;2023-05-31T00:19:59;5.60;;;5.00;;
11829;SDS011;5972;42.134;24.718;2023-05-31T00:22:26;4.80;;;4.38;;
11829;SDS011;5972;42.134;24.718;2023-05-31T00:24:52;5.90;;;4.47;;
11829;SDS011;5972;42.134;24.718;2023-05-31T00:27:21;6.00;;;5.00;;
11829;SDS011;5972;42.134;24.718;2023-05-31T00:29:48;5.88;;;4.88;;
11829;SDS011;5972;42.134;24.718;2023-05-31T00:32:15;7.05;;;4.90;;
11829;SDS011;5972;42.134;24.718;2023-05-31T00:34:41;7.22;;;5.28;;
11829;SDS011;5972;42.134;24.718;2023-05-31T00:37:08;7.15;;;5.45;;
11829;SDS011;5972;42.134;24.718;2023-05-31T00:39:35;6.13;;;5.10;;
11829;SDS011;5972;42.134;24.718;2023-05-31T00:42:02;6.45;;;5.47;;
11829;SDS011;5972;42.134;24.718;2023-05-31T00:44:30;8.27;;;5.88;;
11829;SDS011;5972;42.134;24.718;2023-05-31T00:46:56;8.23;;;6.28;;
11829;SDS011;5972;42.134;24.718;2023-05-31T00:49:23;11.88;;;7.35;;
11829;SDS011;5972;42.134;24.718;2023-05-31T00:51:51;9.88;;;7.68;;
11829;SDS011;5972;42.134;24.718;2023-05-31T00:54:18;9.80;;;8.30;;
11829;SDS011;5972;42.134;24.718;2023-05-31T00:56:45;9.00;;;7.53;;
11829;SDS011;5972;42.134;24.718;2023-05-31T00:59:12;10.73;;;7.65;;
11829;SDS011;5972;42.134;24.718;2023-05-31T01:01:40;8.95;;;7.32;;
11829;SDS011;5972;42.134;24.718;2023-05-31T01:04:07;16.50;;;8.18;;
11829;SDS011;5972;42.134;24.718;2023-05-31T01:06:34;8.07;;;7.30;;
11829;SDS011;5972;42.134;24.718;2023-05-31T01:09:01;12.55;;;7.38;;
11829;SDS011;5972;42.134;24.718;2023-05-31T01:11:34;9.55;;;7.57;;
11829;SDS011;5972;42.134;24.718;2023-05-31T01:14:13;8.57;;;7.78;;
11829;SDS011;5972;42.134;24.718;2023-05-31T01:16:50;9.65;;;8.35;;
11829;SDS011;5972;42.134;24.718;2023-05-31T01:19:20;8.77;;;7.95;;
11829;SDS011;5972;42.134;24.718;2023-05-31T01:22:01;9.18;;;8.27;;
11829;SDS011;5972;42.134;24.718;2023-05-31T01:24:43;9.43;;;8.35;;
11829;SDS011;5972;42.134;24.718;2023-05-31T01:27:19;11.20;;;8.10;;
11829;SDS011;5972;42.134;24.718;2023-05-31T01:29:47;9.55;;;7.80;;
11829;SDS011;5972;42.134;24.718;2023-05-31T01:32:15;12.02;;;8.20;;
11829;SDS011;5972;42.134;24.718;2023-05-31T01:34:44;9.70;;;7.88;;
11829;SDS011;5972;42.134;24.718;2023-05-31T01:37:11;8.20;;;7.32;;
11829;SDS011;5972;42.134;24.718;2023-05-31T01:39:38;10.10;;;8.32;;
11829;SDS011;5972;42.134;24.718;2023-05-31T01:42:05;8.65;;;7.65;;
11829;SDS011;5972;42.134;24.718;2023-05-31T01:44:35;8.95;;;7.90;;
11829;SDS011;5972;42.134;24.718;2023-05-31T01:47:04;12.05;;;7.65;;
11829;SDS011;5972;42.134;24.718;2023-05-31T01:49:32;11.30;;;7.75;;
11829;SDS011;5972;42.134;24.718;2023-05-31T01:51:59;11.88;;;7.20;;
11829;SDS011;5972;42.134;24.718;2023-05-31T01:54:27;12.63;;;6.70;;
11829;SDS011;5972;42.134;24.718;2023-05-31T01:56:54;9.70;;;7.20;;
11829;SDS011;5972;42.134;24.718;2023-05-31T01:59:21;12.05;;;7.80;;
11829;SDS011;5972;42.134;24.718;2023-05-31T02:01:50;8.70;;;6.90;;
11829;SDS011;5972;42.134;24.718;2023-05-31T02:04:17;9.70;;;6.97;;
11829;SDS011;5972;42.134;24.718;2023-05-31T02:06:44;8.55;;;6.63;;
11829;SDS011;5972;42.134;24.718;2023-05-31T02:09:11;8.75;;;6.85;;
11829;SDS011;5972;42.134;24.718;2023-05-31T02:11:39;7.93;;;6.95;;
11829;SDS011;5972;42.134;24.718;2023-05-31T02:14:05;9.35;;;7.18;;
11829;SDS011;5972;42.134;24.718;2023-05-31T02:16:32;8.25;;;6.47;;
11829;SDS011;5972;42.134;24.718;2023-05-31T02:19:00;10.13;;;6.60;;
11829;SDS011;5972;42.134;24.718;2023-05-31T02:21:28;7.68;;;6.47;;
11829;SDS011;5972;42.134;24.718;2023-05-31T02:23:55;7.85;;;6.95;;
11829;SDS011;5972;42.134;24.718;2023-05-31T02:26:22;9.68;;;6.75;;
11829;SDS011;5972;42.134;24.718;2023-05-31T02:28:49;6.97;;;6.28;;
11829;SDS011;5972;42.134;24.718;2023-05-31T02:31:16;9.18;;;6.80;;
11829;SDS011;5972;42.134;24.718;2023-05-31T02:33:42;7.97;;;6.90;;
11829;SDS011;5972;42.134;24.718;2023-05-31T02:36:11;7.47;;;6.50;;
11829;SDS011;5972;42.134;24.718;2023-05-31T02:38:38;9.55;;;6.55;;
11829;SDS011;5972;42.134;24.718;2023-05-31T02:41:05;7.93;;;6.70;;
11829;SDS011;5972;42.134;24.718;2023-05-31T02:43:32;7.70;;;6.25;;
11829;SDS011;5972;42.134;24.718;2023-05-31T02:45:59;6.97;;;6.32;;
11829;SDS011;5972;42.134;24.718;2023-05-31T02:48:26;10.00;;;6.30;;
11829;SDS011;5972;42.134;24.718;2023-05-31T02:50:53;8.80;;;6.28;;
11829;SDS011;5972;42.134;24.718;2023-05-31T02:53:21;10.30;;;6.32;;
11829;SDS011;5972;42.134;24.718;2023-05-31T02:55:48;6.40;;;5.80;;
11829;SDS011;5972;42.134;24.718;2023-05-31T02:58:16;11.82;;;6.05;;
11829;SDS011;5972;42.134;24.718;2023-05-31T03:00:44;8.98;;;6.03;;
11829;SDS011;5972;42.134;24.718;2023-05-31T03:03:10;6.93;;;5.78;;
11829;SDS011;5972;42.134;24.718;2023-05-31T03:05:37;10.85;;;5.93;;
11829;SDS011;5972;42.134;24.718;2023-05-31T03:08:04;7.90;;;6.13;;
11829;SDS011;5972;42.134;24.718;2023-05-31T03:10:32;7.25;;;6.00;;
11829;SDS011;5972;42.134;24.718;2023-05-31T03:12:59;8.23;;;6.25;;
11829;SDS011;5972;42.134;24.718;2023-05-31T03:15:25;14.05;;;6.57;;
11829;SDS011;5972;42.134;24.718;2023-05-31T03:17:52;8.32;;;6.10;;
11829;SDS011;5972;42.134;24.718;2023-05-31T03:20:19;7.72;;;6.13;;
11829;SDS011;5972;42.134;24.718;2023-05-31T03:22:45;7.13;;;5.75;;
11829;SDS011;5972;42.134;24.718;2023-05-31T03:25:13;8.57;;;6.03;;
11829;SDS011;5972;42.134;24.718;2023-05-31T03:27:41;7.60;;;6.28;;
11829;SDS011;5972;42.134;24.718;2023-05-31T03:30:08;7.55;;;6.57;;
11829;SDS011;5972;42.134;24.718;2023-05-31T03:32:35;10.45;;;6.95;;
11829;SDS011;5972;42.134;24.718;2023-05-31T03:35:02;7.25;;;6.45;;
11829;SDS011;5972;42.134;24.718;2023-05-31T03:37:29;16.38;;;6.57;;
11829;SDS011;5972;42.134;24.718;2023-05-31T03:39:55;17.13;;;7.05;;
11829;SDS011;5972;42.134;24.718;2023-05-31T03:42:22;12.45;;;7.03;;
11829;SDS011;5972;42.134;24.718;2023-05-31T03:44:50;16.10;;;7.80;;
11829;SDS011;5972;42.134;24.718;2023-05-31T03:47:17;11.65;;;7.82;;
11829;SDS011;5972;42.134;24.718;2023-05-31T03:49:44;17.77;;;8.00;;
11829;SDS011;5972;42.134;24.718;2023-05-31T03:52:11;12.13;;;7.88;;
11829;SDS011;5972;42.134;24.718;2023-05-31T03:54:38;11.73;;;7.88;;
11829;SDS011;5972;42.134;24.718;2023-05-31T03:57:05;12.68;;;8.40;;
11829;SDS011;5972;42.134;24.718;2023-05-31T03:59:33;14.10;;;7.82;;
11829;SDS011;5972;42.134;24.718;2023-05-31T04:02:01;14.10;;;8.00;;
11829;SDS011;5972;42.134;24.718;2023-05-31T04:04:29;12.57;;;8.02;;
11829;SDS011;5972;42.134;24.718;2023-05-31T04:06:55;10.18;;;7.93;;
11829;SDS011;5972;42.134;24.718;2023-05-31T04:09:22;13.15;;;8.23;;
11829;SDS011;5972;42.134;24.718;2023-05-31T04:11:49;13.00;;;7.68;;
11829;SDS011;5972;42.134;24.718;2023-05-31T04:14:16;11.85;;;8.43;;
11829;SDS011;5972;42.134;24.718;2023-05-31T04:16:43;10.00;;;8.18;;
11829;SDS011;5972;42.134;24.718;2023-05-31T04:19:11;11.65;;;7.50;;
11829;SDS011;5972;42.134;24.718;2023-05-31T04:21:38;12.98;;;7.85;;
11829;SDS011;5972;42.134;24.718;2023-05-31T04:24:04;12.75;;;7.55;;
11829;SDS011;5972;42.134;24.718;2023-05-31T04:26:31;12.93;;;7.68;;
11829;SDS011;5972;42.134;24.718;2023-05-31T04:28:59;9.00;;;6.82;;
11829;SDS011;5972;42.134;24.718;2023-05-31T04:31:26;14.75;;;8.07;;
11829;SDS011;5972;42.134;24.718;2023-05-31T04:33:53;13.98;;;7.10;;
11829;SDS011;5972;42.134;24.718;2023-05-31T04:36:23;9.98;;;7.47;;
11829;SDS011;5972;42.134;24.718;2023-05-31T04:38:50;11.70;;;6.95;;
11829;SDS011;5972;42.134;24.718;2023-05-31T04:41:20;9.02;;;6.40;;
11829;SDS011;5972;42.134;24.718;2023-05-31T04:43:50;11.05;;;6.80;;
11829;SDS011;5972;42.134;24.718;2023-05-31T04:46:17;11.63;;;7.15;;
11829;SDS011;5972;42.134;24.718;2023-05-31T04:48:44;8.65;;;6.85;;
11829;SDS011;5972;42.134;24.718;2023-05-31T04:51:15;10.40;;;7.25;;
11829;SDS011;5972;42.134;24.718;2023-05-31T04:53:43;10.82;;;7.35;;
11829;SDS011;5972;42.134;24.718;2023-05-31T04:56:10;11.02;;;7.20;;
11829;SDS011;5972;42.134;24.718;2023-05-31T04:58:37;8.50;;;6.90;;
11829;SDS011;5972;42.134;24.718;2023-05-31T05:01:04;9.05;;;8.05;;
11829;SDS011;5972;42.134;24.718;2023-05-31T05:03:32;9.27;;;7.70;;
11829;SDS011;5972;42.134;24.718;2023-05-31T05:06:00;9.73;;;8.07;;
11829;SDS011;5972;42.134;24.718;2023-05-31T05:08:27;9.32;;;7.60;;
11829;SDS011;5972;42.134;24.718;2023-05-31T05:10:55;9.63;;;7.47;;
11829;SDS011;5972;42.134;24.718;2023-05-31T05:13:22;9.55;;;7.38;;
11829;SDS011;5972;42.134;24.718;2023-05-31T05:15:49;11.82;;;7.50;;
11829;SDS011;5972;42.134;24.718;2023-05-31T05:18:15;13.75;;;7.80;;
11829;SDS011;5972;42.134;24.718;2023-05-31T05:20:42;15.13;;;7.72;;
11829;SDS011;5972;42.134;24.718;2023-05-31T05:23:09;14.05;;;7.65;;
11829;SDS011;5972;42.134;24.718;2023-05-31T05:25:36;12.90;;;8.00;;
11829;SDS011;5972;42.134;24.718;2023-05-31T05:28:04;13.52;;;8.07;;
11829;SDS011;5972;42.134;24.718;2023-05-31T05:30:31;9.57;;;7.40;;
11829;SDS011;5972;42.134;24.718;2023-05-31T05:32:58;9.55;;;7.22;;
11829;SDS011;5972;42.134;24.718;2023-05-31T05:35:25;9.93;;;6.65;;
11829;SDS011;5972;42.134;24.718;2023-05-31T05:37:52;12.02;;;6.68;;
11829;SDS011;5972;42.134;24.718;2023-05-31T05:40:19;12.90;;;7.40;;
11829;SDS011;5972;42.134;24.718;2023-05-31T05:42:47;11.40;;;7.07;;
11829;SDS011;5972;42.134;24.718;2023-05-31T05:45:15;9.80;;;6.93;;
11829;SDS011;5972;42.134;24.718;2023-05-31T05:47:42;13.90;;;7.15;;
11829;SDS011;5972;42.134;24.718;2023-05-31T05:50:10;9.23;;;7.38;;
11829;SDS011;5972;42.134;24.718;2023-05-31T05:52:37;10.80;;;7.60;;
11829;SDS011;5972;42.134;24.718;2023-05-31T05:55:04;9.02;;;6.80;;
11829;SDS011;5972;42.134;24.718;2023-05-31T05:57:31;11.60;;;7.50;;
11829;SDS011;5972;42.134;24.718;2023-05-31T05:59:58;15.18;;;7.38;;
11829;SDS011;5972;42.134;24.718;2023-05-31T06:02:28;17.70;;;7.38;;
11829;SDS011;5972;42.134;24.718;2023-05-31T06:04:55;11.30;;;6.72;;
11829;SDS011;5972;42.134;24.718;2023-05-31T06:07:22;11.57;;;7.28;;
11829;SDS011;5972;42.134;24.718;2023-05-31T06:09:49;12.88;;;6.65;;
11829;SDS011;5972;42.134;24.718;2023-05-31T06:12:16;12.85;;;6.47;;
11829;SDS011;5972;42.134;24.718;2023-05-31T06:14:42;12.77;;;6.65;;
11829;SDS011;5972;42.134;24.718;2023-05-31T06:17:09;14.68;;;5.97;;
11829;SDS011;5972;42.134;24.718;2023-05-31T06:19:37;11.50;;;6.53;;
11829;SDS011;5972;42.134;24.718;2023-05-31T06:22:04;22.73;;;6.00;;
11829;SDS011;5972;42.134;24.718;2023-05-31T06:24:31;11.85;;;5.38;;
11829;SDS011;5972;42.134;24.718;2023-05-31T06:26:58;7.85;;;4.78;;
11829;SDS011;5972;42.134;24.718;2023-05-31T06:29:27;8.55;;;5.07;;
11829;SDS011;5972;42.134;24.718;2023-05-31T06:31:54;9.18;;;5.15;;
11829;SDS011;5972;42.134;24.718;2023-05-31T06:34:22;16.15;;;5.25;;
11829;SDS011;5972;42.134;24.718;2023-05-31T06:36:50;10.32;;;5.05;;
11829;SDS011;5972;42.134;24.718;2023-05-31T06:39:17;11.52;;;5.53;;
11829;SDS011;5972;42.134;24.718;2023-05-31T06:41:43;11.45;;;6.10;;
11829;SDS011;5972;42.134;24.718;2023-05-31T06:44:10;9.00;;;5.28;;
11829;SDS011;5972;42.134;24.718;2023-05-31T06:46:37;14.63;;;5.82;;
11829;SDS011;5972;42.134;24.718;2023-05-31T06:49:05;9.77;;;5.70;;
11829;SDS011;5972;42.134;24.718;2023-05-31T06:51:31;11.45;;;5.68;;
11829;SDS011;5972;42.134;24.718;2023-05-31T06:54:00;12.70;;;5.88;;
11829;SDS011;5972;42.134;24.718;2023-05-31T06:56:27;10.38;;;5.72;;
11829;SDS011;5972;42.134;24.718;2023-05-31T06:58:54;11.95;;;5.53;;
11829;SDS011;5972;42.134;24.718;2023-05-31T07:01:21;13.10;;;5.88;;
11829;SDS011;5972;42.134;24.718;2023-05-31T07:03:49;10.77;;;5.18;;
11829;SDS011;5972;42.134;24.718;2023-05-31T07:06:16;11.82;;;5.68;;
11829;SDS011;5972;42.134;24.718;2023-05-31T07:08:42;8.77;;;5.00;;
11829;SDS011;5972;42.134;24.718;2023-05-31T07:11:11;7.40;;;5.15;;
11829;SDS011;5972;42.134;24.718;2023-05-31T07:13:38;12.20;;;5.10;;
11829;SDS011;5972;42.134;24.718;2023-05-31T07:16:05;7.70;;;5.45;;
11829;SDS011;5972;42.134;24.718;2023-05-31T07:18:32;9.35;;;4.97;;
11829;SDS011;5972;42.134;24.718;2023-05-31T07:20:59;6.88;;;4.85;;
11829;SDS011;5972;42.134;24.718;2023-05-31T07:23:26;6.22;;;5.20;;
11829;SDS011;5972;42.134;24.718;2023-05-31T07:25:53;7.10;;;4.65;;
11829;SDS011;5972;42.134;24.718;2023-05-31T07:28:21;8.73;;;5.15;;
11829;SDS011;5972;42.134;24.718;2023-05-31T07:30:47;9.23;;;4.78;;
11829;SDS011;5972;42.134;24.718;2023-05-31T07:33:14;7.00;;;4.68;;
11829;SDS011;5972;42.134;24.718;2023-05-31T07:35:41;11.57;;;4.28;;
11829;SDS011;5972;42.134;24.718;2023-05-31T07:38:09;8.52;;;4.53;;
11829;SDS011;5972;42.134;24.718;2023-05-31T07:40:36;7.78;;;5.20;;
11829;SDS011;5972;42.134;24.718;2023-05-31T07:43:03;9.15;;;5.10;;
11829;SDS011;5972;42.134;24.718;2023-05-31T07:45:31;8.82;;;5.88;;
11829;SDS011;5972;42.134;24.718;2023-05-31T07:47:57;12.88;;;5.55;;
11829;SDS011;5972;42.134;24.718;2023-05-31T07:50:24;10.32;;;5.53;;
11829;SDS011;5972;42.134;24.718;2023-05-31T07:52:51;6.70;;;5.30;;
11829;SDS011;5972;42.134;24.718;2023-05-31T07:55:18;6.05;;;4.47;;
11829;SDS011;5972;42.134;24.718;2023-05-31T07:57:44;6.28;;;4.70;;
11829;SDS011;5972;42.134;24.718;2023-05-31T08:00:11;6.55;;;5.00;;
11829;SDS011;5972;42.134;24.718;2023-05-31T08:02:40;7.85;;;5.15;;
11829;SDS011;5972;42.134;24.718;2023-05-31T08:05:08;5.70;;;4.78;;
11829;SDS011;5972;42.134;24.718;2023-05-31T08:07:35;5.07;;;3.92;;
11829;SDS011;5972;42.134;24.718;2023-05-31T08:10:02;5.82;;;4.15;;
11829;SDS011;5972;42.134;24.718;2023-05-31T08:12:30;8.85;;;4.15;;
11829;SDS011;5972;42.134;24.718;2023-05-31T08:14:57;9.50;;;4.20;;
11829;SDS011;5972;42.134;24.718;2023-05-31T08:17:23;5.18;;;3.42;;
11829;SDS011;5972;42.134;24.718;2023-05-31T08:19:51;5.38;;;3.95;;
11829;SDS011;5972;42.134;24.718;2023-05-31T08:22:18;5.93;;;4.10;;
11829;SDS011;5972;42.134;24.718;2023-05-31T08:24:45;8.27;;;4.32;;
11829;SDS011;5972;42.134;24.718;2023-05-31T08:27:12;5.72;;;4.28;;
11829;SDS011;5972;42.134;24.718;2023-05-31T08:29:39;7.55;;;4.50;;
11829;SDS011;5972;42.134;24.718;2023-05-31T08:32:05;12.70;;;4.97;;
11829;SDS011;5972;42.134;24.718;2023-05-31T08:34:32;6.22;;;4.70;;
11829;SDS011;5972;42.134;24.718;2023-05-31T08:37:00;7.40;;;4.13;;
11829;SDS011;5972;42.134;24.718;2023-05-31T08:39:27;7.32;;;5.00;;
11829;SDS011;5972;42.134;24.718;2023-05-31T08:41:58;6.82;;;4.63;;
11829;SDS011;5972;42.134;24.718;2023-05-31T08:44:26;8.15;;;4.72;;
11829;SDS011;5972;42.134;24.718;2023-05-31T08:46:55;7.28;;;5.00;;
11829;SDS011;5972;42.134;24.718;2023-05-31T08:49:24;9.82;;;5.50;;
11829;SDS011;5972;42.134;24.718;2023-05-31T08:51:51;9.43;;;4.60;;
11829;SDS011;5972;42.134;24.718;2023-05-31T08:54:21;5.57;;;4.80;;
11829;SDS011;5972;42.134;24.718;2023-05-31T08:56:50;8.85;;;4.95;;
11829;SDS011;5972;42.134;24.718;2023-05-31T08:59:18;9.75;;;4.43;;
11829;SDS011;5972;42.134;24.718;2023-05-31T09:01:45;8.00;;;4.63;;
11829;SDS011;5972;42.134;24.718;2023-05-31T09:04:13;7.50;;;4.80;;
11829;SDS011;5972;42.134;24.718;2023-05-31T09:06:41;7.90;;;4.45;;
11829;SDS011;5972;42.134;24.718;2023-05-31T09:09:08;8.30;;;4.95;;
11829;SDS011;5972;42.134;24.718;2023-05-31T09:11:36;11.32;;;4.90;;
11829;SDS011;5972;42.134;24.718;2023-05-31T09:14:05;10.90;;;4.72;;
11829;SDS011;5972;42.134;24.718;2023-05-31T09:16:33;14.93;;;5.50;;
11829;SDS011;5972;42.134;24.718;2023-05-31T09:19:01;8.02;;;5.13;;
11829;SDS011;5972;42.134;24.718;2023-05-31T09:21:33;9.23;;;5.13;;
11829;SDS011;5972;42.134;24.718;2023-05-31T09:24:04;10.10;;;4.78;;
11829;SDS011;5972;42.134;24.718;2023-05-31T09:26:31;7.45;;;4.78;;
11829;SDS011;5972;42.134;24.718;2023-05-31T09:29:00;8.65;;;4.93;;
11829;SDS011;5972;42.134;24.718;2023-05-31T09:31:27;9.50;;;5.00;;
11829;SDS011;5972;42.134;24.718;2023-05-31T09:33:54;10.73;;;4.80;;
11829;SDS011;5972;42.134;24.718;2023-05-31T09:36:24;8.55;;;5.20;;
11829;SDS011;5972;42.134;24.718;2023-05-31T09:38:57;11.02;;;5.72;;
11829;SDS011;5972;42.134;24.718;2023-05-31T09:41:27;5.78;;;5.15;;
11829;SDS011;5972;42.134;24.718;2023-05-31T09:43:54;6.28;;;5.18;;
11829;SDS011;5972;42.134;24.718;2023-05-31T09:46:23;6.28;;;5.00;;
11829;SDS011;5972;42.134;24.718;2023-05-31T09:48:57;7.75;;;4.88;;
11829;SDS011;5972;42.134;24.718;2023-05-31T09:51:24;5.10;;;4.30;;
11829;SDS011;5972;42.134;24.718;2023-05-31T09:53:51;5.53;;;4.57;;
11829;SDS011;5972;42.134;24.718;2023-05-31T09:56:21;8.68;;;5.07;;
11829;SDS011;5972;42.134;24.718;2023-05-31T09:58:48;8.15;;;4.85;;
11829;SDS011;5972;42.134;24.718;2023-05-31T10:01:16;9.07;;;4.70;;
11829;SDS011;5972;42.134;24.718;2023-05-31T10:03:44;9.02;;;5.20;;
11829;SDS011;5972;42.134;24.718;2023-05-31T10:06:13;7.43;;;5.38;;
11829;SDS011;5972;42.134;24.718;2023-05-31T10:08:42;12.77;;;5.32;;
11829;SDS011;5972;42.134;24.718;2023-05-31T10:11:09;10.07;;;5.20;;
11829;SDS011;5972;42.134;24.718;2023-05-31T10:13:38;6.75;;;5.38;;
11829;SDS011;5972;42.134;24.718;2023-05-31T10:16:08;7.28;;;5.00;;
11829;SDS011;5972;42.134;24.718;2023-05-31T10:18:38;6.47;;;4.72;;
11829;SDS011;5972;42.134;24.718;2023-05-31T10:21:10;5.50;;;4.80;;
11829;SDS011;5972;42.134;24.718;2023-05-31T10:23:42;5.60;;;5.10;;
11829;SDS011;5972;42.134;24.718;2023-05-31T10:26:12;7.93;;;5.32;;
11829;SDS011;5972;42.134;24.718;2023-05-31T10:28:44;6.30;;;5.47;;
11829;SDS011;5972;42.134;24.718;2023-05-31T10:31:14;5.82;;;4.72;;
11829;SDS011;5972;42.134;24.718;2023-05-31T10:33:43;5.28;;;4.80;;
11829;SDS011;5972;42.134;24.718;2023-05-31T10:36:16;9.43;;;4.88;;
11829;SDS011;5972;42.134;24.718;2023-05-31T10:38:45;7.15;;;4.72;;
11829;SDS011;5972;42.134;24.718;2023-05-31T10:41:19;8.40;;;5.22;;
11829;SDS011;5972;42.134;24.718;2023-05-31T10:43:50;6.88;;;5.15;;
11829;SDS011;5972;42.134;24.718;2023-05-31T10:46:22;6.95;;;4.90;;
11829;SDS011;5972;42.134;24.718;2023-05-31T10:48:53;6.13;;;4.70;;
11829;SDS011;5972;42.134;24.718;2023-05-31T10:54:19;4.63;;;4.10;;
11829;SDS011;5972;42.134;24.718;2023-05-31T10:56:51;5.88;;;4.00;;
11829;SDS011;5972;42.134;24.718;2023-05-31T10:59:18;5.22;;;4.72;;
11829;SDS011;5972;42.134;24.718;2023-05-31T11:01:45;5.07;;;4.57;;
11829;SDS011;5972;42.134;24.718;2023-05-31T11:04:18;6.15;;;4.65;;
11829;SDS011;5972;42.134;24.718;2023-05-31T11:06:47;6.60;;;4.40;;
11829;SDS011;5972;42.134;24.718;2023-05-31T11:09:14;5.15;;;4.18;;
11829;SDS011;5972;42.134;24.718;2023-05-31T11:11:45;5.07;;;4.57;;
11829;SDS011;5972;42.134;24.718;2023-05-31T11:19:40;6.40;;;4.30;;
11829;SDS011;5972;42.134;24.718;2023-05-31T11:22:09;7.18;;;4.57;;
11829;SDS011;5972;42.134;24.718;2023-05-31T11:24:47;10.77;;;5.03;;
11829;SDS011;5972;42.134;24.718;2023-05-31T11:27:17;5.18;;;4.50;;
11829;SDS011;5972;42.134;24.718;2023-05-31T11:29:57;7.57;;;4.38;;
11829;SDS011;5972;42.134;24.718;2023-05-31T11:35:22;6.70;;;4.68;;
11829;SDS011;5972;42.134;24.718;2023-05-31T11:37:49;4.78;;;4.35;;
11829;SDS011;5972;42.134;24.718;2023-05-31T11:40:16;6.55;;;4.57;;
11829;SDS011;5972;42.134;24.718;2023-05-31T11:42:45;6.28;;;4.00;;
11829;SDS011;5972;42.134;24.718;2023-05-31T11:45:12;4.65;;;3.95;;
11829;SDS011;5972;42.134;24.718;2023-05-31T11:47:46;5.78;;;4.60;;
11829;SDS011;5972;42.134;24.718;2023-05-31T11:50:20;9.77;;;4.30;;
11829;SDS011;5972;42.134;24.718;2023-05-31T11:52:50;6.70;;;4.50;;
11829;SDS011;5972;42.134;24.718;2023-05-31T11:55:20;5.80;;;4.60;;
11829;SDS011;5972;42.134;24.718;2023-05-31T11:57:48;10.98;;;4.70;;
11829;SDS011;5972;42.134;24.718;2023-05-31T12:00:17;14.50;;;4.63;;
11829;SDS011;5972;42.134;24.718;2023-05-31T12:02:50;6.97;;;4.55;;
11829;SDS011;5972;42.134;24.718;2023-05-31T12:05:18;5.47;;;4.30;;
11829;SDS011;5972;42.134;24.718;2023-05-31T12:07:47;6.78;;;4.22;;
11829;SDS011;5972;42.134;24.718;2023-05-31T12:10:18;4.72;;;4.30;;
11829;SDS011;5972;42.134;24.718;2023-05-31T12:12:45;5.13;;;4.00;;
11829;SDS011;5972;42.134;24.718;2023-05-31T12:15:15;7.05;;;4.50;;
11829;SDS011;5972;42.134;24.718;2023-05-31T12:17:43;4.65;;;4.18;;
11829;SDS011;5972;42.134;24.718;2023-05-31T12:20:10;6.57;;;4.28;;
11829;SDS011;5972;42.134;24.718;2023-05-31T12:22:37;8.63;;;4.53;;
11829;SDS011;5972;42.134;24.718;2023-05-31T12:25:04;7.25;;;4.85;;
11829;SDS011;5972;42.134;24.718;2023-05-31T12:27:32;4.93;;;4.32;;
11829;SDS011;5972;42.134;24.718;2023-05-31T12:30:00;5.40;;;4.30;;
11829;SDS011;5972;42.134;24.718;2023-05-31T12:32:29;3.90;;;3.60;;
11829;SDS011;5972;42.134;24.718;2023-05-31T12:35:02;6.13;;;4.63;;
11829;SDS011;5972;42.134;24.718;2023-05-31T12:37:32;6.50;;;3.95;;
11829;SDS011;5972;42.134;24.718;2023-05-31T12:40:09;6.72;;;4.07;;
11829;SDS011;5972;42.134;24.718;2023-05-31T12:42:37;5.93;;;4.60;;
11829;SDS011;5972;42.134;24.718;2023-05-31T12:45:05;3.72;;;3.42;;
11829;SDS011;5972;42.134;24.718;2023-05-31T12:47:34;7.50;;;4.07;;
11829;SDS011;5972;42.134;24.718;2023-05-31T12:50:02;6.97;;;4.47;;
11829;SDS011;5972;42.134;24.718;2023-05-31T12:52:32;4.72;;;4.20;;
11829;SDS011;5972;42.134;24.718;2023-05-31T12:54:59;3.97;;;3.55;;
11829;SDS011;5972;42.134;24.718;2023-05-31T12:57:29;5.10;;;3.50;;
11829;SDS011;5972;42.134;24.718;2023-05-31T12:59:59;5.07;;;4.40;;
11829;SDS011;5972;42.134;24.718;2023-05-31T13:02:30;6.00;;;4.10;;
11829;SDS011;5972;42.134;24.718;2023-05-31T13:04:58;4.30;;;3.90;;
11829;SDS011;5972;42.134;24.718;2023-05-31T13:07:25;5.53;;;3.90;;
11829;SDS011;5972;42.134;24.718;2023-05-31T13:09:52;9.93;;;4.18;;
11829;SDS011;5972;42.134;24.718;2023-05-31T13:12:19;5.18;;;3.92;;
11829;SDS011;5972;42.134;24.718;2023-05-31T13:14:46;6.45;;;4.38;;
11829;SDS011;5972;42.134;24.718;2023-05-31T13:17:14;4.38;;;3.65;;
11829;SDS011;5972;42.134;24.718;2023-05-31T13:19:41;4.85;;;4.00;;
11829;SDS011;5972;42.134;24.718;2023-05-31T13:22:09;7.43;;;4.28;;
11829;SDS011;5972;42.134;24.718;2023-05-31T13:24:43;4.43;;;4.00;;
11829;SDS011;5972;42.134;24.718;2023-05-31T13:27:20;6.30;;;4.13;;
11829;SDS011;5972;42.134;24.718;2023-05-31T13:29:47;5.70;;;4.10;;
11829;SDS011;5972;42.134;24.718;2023-05-31T13:32:14;4.82;;;3.83;;
11829;SDS011;5972;42.134;24.718;2023-05-31T13:34:41;7.15;;;3.92;;
11829;SDS011;5972;42.134;24.718;2023-05-31T13:37:08;4.82;;;4.00;;
11829;SDS011;5972;42.134;24.718;2023-05-31T13:39:36;5.15;;;3.95;;
11829;SDS011;5972;42.134;24.718;2023-05-31T13:42:03;4.90;;;4.07;;
11829;SDS011;5972;42.134;24.718;2023-05-31T13:44:30;4.72;;;4.25;;
11829;SDS011;5972;42.134;24.718;2023-05-31T13:46:57;4.63;;;4.22;;
11829;SDS011;5972;42.134;24.718;2023-05-31T13:49:24;9.00;;;4.55;;
11829;SDS011;5972;42.134;24.718;2023-05-31T13:51:51;4.53;;;3.97;;
11829;SDS011;5972;42.134;24.718;2023-05-31T13:54:19;5.43;;;4.03;;
11829;SDS011;5972;42.134;24.718;2023-05-31T13:56:46;5.85;;;4.40;;
11829;SDS011;5972;42.134;24.718;2023-05-31T13:59:13;5.18;;;4.28;;
11829;SDS011;5972;42.134;24.718;2023-05-31T14:01:39;5.25;;;4.45;;
11829;SDS011;5972;42.134;24.718;2023-05-31T14:04:06;4.30;;;3.85;;
11829;SDS011;5972;42.134;24.718;2023-05-31T14:06:34;4.18;;;3.88;;
11829;SDS011;5972;42.134;24.718;2023-05-31T14:09:00;4.40;;;3.90;;
11829;SDS011;5972;42.134;24.718;2023-05-31T14:11:29;10.90;;;4.22;;
11829;SDS011;5972;42.134;24.718;2023-05-31T14:13:55;8.63;;;4.40;;
11829;SDS011;5972;42.134;24.718;2023-05-31T14:16:22;6.82;;;4.50;;
11829;SDS011;5972;42.134;24.718;2023-05-31T14:18:49;4.47;;;3.60;;
11829;SDS011;5972;42.134;24.718;2023-05-31T14:21:16;4.20;;;3.50;;
11829;SDS011;5972;42.134;24.718;2023-05-31T14:23:43;5.88;;;4.10;;
11829;SDS011;5972;42.134;24.718;2023-05-31T14:26:10;4.90;;;3.92;;
11829;SDS011;5972;42.134;24.718;2023-05-31T14:28:38;4.93;;;3.78;;
11829;SDS011;5972;42.134;24.718;2023-05-31T14:31:05;6.60;;;4.07;;
11829;SDS011;5972;42.134;24.718;2023-05-31T14:33:31;5.15;;;4.60;;
11829;SDS011;5972;42.134;24.718;2023-05-31T14:35:58;4.85;;;4.15;;
11829;SDS011;5972;42.134;24.718;2023-05-31T14:38:26;4.65;;;4.25;;
11829;SDS011;5972;42.134;24.718;2023-05-31T14:40:52;5.55;;;4.57;;
11829;SDS011;5972;42.134;24.718;2023-05-31T14:43:19;7.57;;;4.38;;
11829;SDS011;5972;42.134;24.718;2023-05-31T14:45:47;6.25;;;4.40;;
11829;SDS011;5972;42.134;24.718;2023-05-31T14:48:14;4.47;;;3.95;;
11829;SDS011;5972;42.134;24.718;2023-05-31T14:50:41;6.15;;;4.10;;
11829;SDS011;5972;42.134;24.718;2023-05-31T14:53:08;6.38;;;4.40;;
11829;SDS011;5972;42.134;24.718;2023-05-31T14:55:37;5.03;;;3.92;;
11829;SDS011;5972;42.134;24.718;2023-05-31T14:58:04;4.68;;;3.50;;